createdAt,value
2023-04-08T00:02:21.020Z,4.98
2023-04-08T00:04:47.435Z,5.01
2023-04-08T00:07:13.775Z,4.90
2023-04-08T00:09:40.078Z,4.98
2023-04-08T00:12:06.661Z,4.99
2023-04-08T00:14:33.036Z,4.74
2023-04-08T00:16:59.343Z,4.91
2023-04-08T00:19:25.736Z,4.93
2023-04-08T00:21:52.077Z,4.94
2023-04-08T00:24:19.395Z,4.82
2023-04-08T00:26:45.699Z,4.91
2023-04-08T00:29:12.014Z,4.98
2023-04-08T00:31:38.325Z,4.95
2023-04-08T00:34:04.647Z,4.87
2023-04-08T00:36:30.946Z,4.90
2023-04-08T00:38:57.256Z,4.91
2023-04-08T00:41:23.623Z,4.88
2023-04-08T00:43:49.938Z,4.93
2023-04-08T00:46:16.400Z,4.98
2023-04-08T00:48:42.769Z,4.98
2023-04-08T00:51:09.127Z,4.92
2023-04-08T00:53:35.436Z,4.96
2023-04-08T00:56:01.738Z,4.83
2023-04-08T00:58:29.321Z,4.80
2023-04-08T01:01:05.623Z,4.78
2023-04-08T01:03:47.075Z,5.03
2023-04-08T01:06:19.974Z,4.71
2023-04-08T01:08:48.064Z,4.93
2023-04-08T01:11:15.031Z,5.06
2023-04-08T01:13:44.513Z,5.21
2023-04-08T01:16:14.063Z,5.20
2023-04-08T01:18:42.116Z,4.97
2023-04-08T01:21:09.684Z,4.99
2023-04-08T01:24:10.835Z,5.11
2023-04-08T01:26:38.351Z,5.17
2023-04-08T01:29:07.406Z,5.17
2023-04-08T01:31:36.654Z,5.11
2023-04-08T01:34:04.940Z,5.03
2023-04-08T01:36:32.610Z,5.04
2023-04-08T01:39:01.925Z,5.24
2023-04-08T01:41:29.747Z,5.33
2023-04-08T01:43:57.551Z,5.37
2023-04-08T01:46:24.298Z,5.38
2023-04-08T01:48:52.110Z,5.34
2023-04-08T01:51:19.664Z,5.33
2023-04-08T01:53:46.029Z,5.36
2023-04-08T01:56:15.555Z,5.35
2023-04-08T01:58:46.310Z,5.41
2023-04-08T02:01:16.977Z,5.39
2023-04-08T02:03:45.039Z,5.33
2023-04-08T02:06:11.479Z,5.26
2023-04-08T02:08:37.775Z,5.24
2023-04-08T02:11:04.161Z,4.88
2023-04-08T02:13:32.145Z,5.26
2023-04-08T02:16:16.098Z,5.36
2023-04-08T02:18:47.992Z,5.37
2023-04-08T02:21:15.769Z,5.32
2023-04-08T02:23:48.556Z,5.34
2023-04-08T02:26:16.432Z,4.94
2023-04-08T02:28:43.209Z,4.75
2023-04-08T02:31:11.752Z,5.22
2023-04-08T02:33:39.198Z,4.93
2023-04-08T02:36:06.751Z,5.04
2023-04-08T02:38:33.088Z,5.41
2023-04-08T02:40:59.420Z,5.50
2023-04-08T02:43:26.077Z,5.49
2023-04-08T02:45:52.621Z,5.44
2023-04-08T02:48:18.939Z,5.52
2023-04-08T02:50:45.244Z,5.49
2023-04-08T02:53:11.561Z,5.40
2023-04-08T02:55:37.991Z,4.99
2023-04-08T02:58:04.320Z,5.01
2023-04-08T03:00:30.670Z,4.92
2023-04-08T03:02:57.230Z,5.26
2023-04-08T03:05:23.985Z,5.18
2023-04-08T03:07:50.278Z,5.18
2023-04-08T03:10:16.647Z,5.20
2023-04-08T03:12:43.085Z,5.32
2023-04-08T03:15:09.724Z,5.37
2023-04-08T03:17:36.097Z,5.33
2023-04-08T03:20:02.905Z,5.19
2023-04-08T03:22:29.230Z,5.18
2023-04-08T03:24:55.524Z,4.95
2023-04-08T03:27:21.837Z,5.13
2023-04-08T03:29:48.141Z,4.91
2023-04-08T03:32:14.566Z,4.83
2023-04-08T03:34:41.112Z,4.79
2023-04-08T03:37:07.598Z,4.61
2023-04-08T03:39:33.932Z,4.72
2023-04-08T03:42:00.290Z,4.68
2023-04-08T03:44:27.186Z,4.77
2023-04-08T03:46:53.486Z,4.95
2023-04-08T03:49:19.818Z,4.75
2023-04-08T03:51:46.156Z,4.92
2023-04-08T03:54:12.468Z,4.90
2023-04-08T03:56:38.790Z,4.66
2023-04-08T03:59:05.094Z,4.51
2023-04-08T04:01:31.451Z,4.48
2023-04-08T04:03:58.619Z,4.79
2023-04-08T04:06:25.122Z,4.71
2023-04-08T04:08:54.042Z,4.76
2023-04-08T04:11:20.366Z,4.97
2023-04-08T04:13:46.665Z,4.81
2023-04-08T04:16:13.033Z,4.88
2023-04-08T04:18:39.400Z,4.85
2023-04-08T04:21:06.604Z,4.73
2023-04-08T04:23:33.048Z,4.60
2023-04-08T04:25:59.437Z,4.52
2023-04-08T04:28:25.732Z,4.67
2023-04-08T04:30:52.385Z,4.36
2023-04-08T04:33:19.607Z,4.34
2023-04-08T04:35:45.935Z,4.35
2023-04-08T04:38:12.262Z,4.24
2023-04-08T04:40:39.389Z,4.24
2023-04-08T04:43:05.728Z,4.28
2023-04-08T04:45:32.128Z,4.58
2023-04-08T04:47:58.556Z,4.23
2023-04-08T04:50:24.947Z,4.22
2023-04-08T04:52:51.292Z,4.28
2023-04-08T04:55:17.621Z,4.63
2023-04-08T04:57:43.950Z,4.42
2023-04-08T05:00:10.794Z,4.48
2023-04-08T05:02:37.307Z,4.61
2023-04-08T05:05:03.961Z,4.24
2023-04-08T05:07:30.318Z,4.48
2023-04-08T05:09:56.612Z,4.82
2023-04-08T05:12:22.968Z,4.72
2023-04-08T05:14:49.275Z,4.64
2023-04-08T05:17:15.569Z,4.25
2023-04-08T05:19:41.884Z,4.48
2023-04-08T05:22:08.194Z,4.67
2023-04-08T05:24:34.524Z,4.37
2023-04-08T05:27:00.819Z,4.34
2023-04-08T05:29:27.341Z,4.50
2023-04-08T05:31:53.788Z,4.53
2023-04-08T05:34:20.143Z,4.60
2023-04-08T05:36:46.444Z,4.57
2023-04-08T05:39:12.730Z,4.32
2023-04-08T05:41:39.046Z,4.64
2023-04-08T05:44:05.423Z,4.43
2023-04-08T05:46:31.737Z,4.39
2023-04-08T05:48:58.069Z,4.81
2023-04-08T05:51:24.398Z,4.86
2023-04-08T05:53:50.686Z,4.95
2023-04-08T05:56:16.990Z,4.88
2023-04-08T05:58:43.303Z,4.88
2023-04-08T06:01:09.647Z,4.74
2023-04-08T06:03:36.151Z,4.71
2023-04-08T06:06:02.569Z,4.82
2023-04-08T06:08:28.881Z,4.49
2023-04-08T06:10:55.227Z,4.30
2023-04-08T06:13:21.544Z,4.41
2023-04-08T06:15:48.198Z,4.41
2023-04-08T06:18:16.448Z,4.57
2023-04-08T06:20:42.772Z,4.58
2023-04-08T06:23:09.094Z,4.80
2023-04-08T06:25:35.425Z,4.76
2023-04-08T06:28:01.774Z,4.69
2023-04-08T06:30:28.115Z,4.70
2023-04-08T06:32:54.498Z,4.87
2023-04-08T06:35:20.866Z,4.82
2023-04-08T06:37:47.217Z,4.63
2023-04-08T06:40:13.553Z,4.81
2023-04-08T06:42:39.855Z,4.89
2023-04-08T06:45:06.485Z,4.82
2023-04-08T06:47:32.839Z,5.19
2023-04-08T06:49:59.200Z,5.12
2023-04-08T06:52:25.531Z,5.09
2023-04-08T06:54:51.820Z,5.17
2023-04-08T06:57:18.294Z,4.78
2023-04-08T06:59:44.617Z,4.87
2023-04-08T07:02:10.960Z,4.79
2023-04-08T07:04:37.326Z,5.23
2023-04-08T07:07:03.627Z,5.25
2023-04-08T07:09:29.973Z,5.09
2023-04-08T07:11:56.274Z,5.10
2023-04-08T07:14:22.596Z,5.32
2023-04-08T07:16:48.980Z,5.53
2023-04-08T07:19:15.295Z,5.11
2023-04-08T07:21:41.612Z,4.90
2023-04-08T07:24:07.932Z,5.02
2023-04-08T07:26:34.224Z,4.93
2023-04-08T07:29:00.537Z,4.92
2023-04-08T07:31:26.883Z,5.05
2023-04-08T07:33:53.247Z,5.36
2023-04-08T07:36:19.593Z,5.56
2023-04-08T07:38:45.973Z,5.51
2023-04-08T07:41:12.368Z,5.21
2023-04-08T07:43:38.689Z,5.31
2023-04-08T07:46:06.173Z,5.24
2023-04-08T07:48:33.754Z,5.31
2023-04-08T07:51:18.007Z,5.15
2023-04-08T07:53:47.203Z,5.34
2023-04-08T07:56:15.428Z,5.71
2023-04-08T07:58:42.341Z,5.53
2023-04-08T08:01:22.979Z,5.50
2023-04-08T08:03:51.121Z,5.66
2023-04-08T08:06:17.919Z,5.93
2023-04-08T08:08:44.338Z,6.15
2023-04-08T08:11:10.656Z,6.08
2023-04-08T08:13:37.015Z,5.98
2023-04-08T08:16:03.439Z,6.26
2023-04-08T08:18:29.782Z,6.01
2023-04-08T08:20:56.158Z,6.39
2023-04-08T08:23:22.505Z,6.47
2023-04-08T08:25:48.845Z,5.98
2023-04-08T08:28:15.177Z,5.98
2023-04-08T08:30:41.523Z,6.17
2023-04-08T08:33:08.049Z,6.12
2023-04-08T08:35:34.474Z,6.11
2023-04-08T08:38:00.858Z,6.16
2023-04-08T08:40:27.227Z,6.64
2023-04-08T08:42:53.612Z,6.73
2023-04-08T08:45:20.536Z,6.39
2023-04-08T08:47:48.986Z,6.69
2023-04-08T08:50:16.835Z,6.71
2023-04-08T08:52:52.523Z,7.23
2023-04-08T08:55:36.370Z,7.11
2023-04-08T08:58:06.672Z,6.68
2023-04-08T09:00:37.549Z,7.16
2023-04-08T09:03:15.903Z,7.04
2023-04-08T09:05:50.200Z,7.02
2023-04-08T09:08:28.402Z,7.09
2023-04-08T09:10:55.907Z,7.12
2023-04-08T09:13:23.525Z,7.63
2023-04-08T09:16:01.995Z,7.96
2023-04-08T09:18:28.395Z,8.14
2023-04-08T09:20:54.801Z,7.65
2023-04-08T09:23:21.160Z,7.58
2023-04-08T09:25:48.104Z,7.01
2023-04-08T09:28:20.929Z,6.63
2023-04-08T09:30:47.526Z,6.60
2023-04-08T09:33:13.888Z,7.42
2023-04-08T09:35:40.233Z,8.18
2023-04-08T09:38:06.582Z,8.21
2023-04-08T09:40:34.752Z,8.27
2023-04-08T09:43:05.029Z,7.87
2023-04-08T09:45:34.048Z,7.70
2023-04-08T09:48:15.782Z,7.49
2023-04-08T09:50:50.726Z,7.29
2023-04-08T09:53:26.440Z,6.53
2023-04-08T09:55:56.856Z,7.39
2023-04-08T09:58:29.158Z,6.99
2023-04-08T10:00:55.772Z,6.54
2023-04-08T10:03:45.568Z,6.79
2023-04-08T10:06:12.407Z,7.07
2023-04-08T10:08:39.112Z,7.00
2023-04-08T10:11:05.503Z,7.08
2023-04-08T10:13:33.771Z,7.20
2023-04-08T10:16:22.146Z,6.52
2023-04-08T10:18:48.799Z,6.80
2023-04-08T10:21:33.839Z,7.05
2023-04-08T10:24:01.759Z,6.86
2023-04-08T10:26:54.421Z,6.98
2023-04-08T10:29:26.456Z,6.95
2023-04-08T10:31:52.914Z,6.66
2023-04-08T10:34:21.125Z,6.69
2023-04-08T10:36:48.284Z,7.07
2023-04-08T10:39:15.141Z,7.06
2023-04-08T10:41:42.547Z,7.20
2023-04-08T10:44:27.126Z,7.42
2023-04-08T10:46:54.566Z,6.88
2023-04-08T10:49:21.060Z,7.11
2023-04-08T10:51:47.505Z,7.12
2023-04-08T10:54:18.166Z,6.67
2023-04-08T10:56:49.357Z,7.24
2023-04-08T10:59:17.771Z,7.81
2023-04-08T11:01:46.804Z,7.40
2023-04-08T11:04:18.057Z,7.85
2023-04-08T11:06:45.711Z,7.43
2023-04-08T11:09:12.332Z,7.27
2023-04-08T11:11:39.164Z,7.93
2023-04-08T11:14:06.461Z,7.40
2023-04-08T11:16:33.946Z,7.80
2023-04-08T11:19:02.492Z,7.99
2023-04-08T11:21:28.916Z,8.10
2023-04-08T11:23:55.684Z,7.85
2023-04-08T11:26:22.589Z,8.05
2023-04-08T11:28:49.143Z,7.47
2023-04-08T11:31:15.682Z,7.64
2023-04-08T11:33:49.391Z,7.81
2023-04-08T11:36:18.002Z,7.93
2023-04-08T11:38:44.464Z,7.78
2023-04-08T11:41:11.069Z,8.52
2023-04-08T11:43:37.911Z,8.28
2023-04-08T11:46:11.040Z,9.03
2023-04-08T11:48:37.519Z,9.39
2023-04-08T11:51:08.161Z,8.99
2023-04-08T11:53:35.313Z,8.97
2023-04-08T11:56:19.270Z,8.65
2023-04-08T11:58:45.683Z,8.42
2023-04-08T12:01:12.342Z,8.58
2023-04-08T12:03:38.952Z,7.93
2023-04-08T12:06:05.509Z,8.27
2023-04-08T12:08:31.819Z,8.09
2023-04-08T12:11:03.736Z,8.60
2023-04-08T12:13:39.431Z,8.60
2023-04-08T12:16:06.022Z,8.17
2023-04-08T12:18:32.309Z,8.42
2023-04-08T12:20:58.632Z,9.26
2023-04-08T12:23:25.013Z,9.00
2023-04-08T12:25:51.331Z,9.25
2023-04-08T12:28:17.634Z,9.53
2023-04-08T12:30:43.934Z,9.23
2023-04-08T12:33:10.332Z,8.58
2023-04-08T12:35:37.787Z,8.87
2023-04-08T12:38:04.102Z,8.52
2023-04-08T12:40:30.422Z,8.30
2023-04-08T12:42:56.726Z,8.48
2023-04-08T12:45:23.129Z,8.65
2023-04-08T12:47:49.494Z,8.60
2023-04-08T12:50:15.894Z,8.79
2023-04-08T12:52:42.198Z,8.58
2023-04-08T12:55:08.983Z,8.78
2023-04-08T12:57:35.641Z,9.15
2023-04-08T13:00:02.053Z,8.65
2023-04-08T13:02:28.489Z,8.02
2023-04-08T13:04:54.880Z,8.21
2023-04-08T13:07:21.414Z,8.36
2023-04-08T13:09:47.708Z,8.57
2023-04-08T13:12:14.021Z,8.66
2023-04-08T13:14:40.327Z,8.83
2023-04-08T13:17:06.628Z,8.63
2023-04-08T13:19:32.934Z,7.91
2023-04-08T13:21:59.276Z,8.26
2023-04-08T13:24:25.624Z,7.85
2023-04-08T13:26:51.917Z,8.44
2023-04-08T13:29:18.213Z,8.14
2023-04-08T13:31:44.547Z,8.00
2023-04-08T13:34:10.874Z,8.43
2023-04-08T13:36:37.166Z,8.16
2023-04-08T13:39:03.566Z,8.31
2023-04-08T13:41:29.853Z,8.39
2023-04-08T13:43:56.185Z,8.81
2023-04-08T13:46:22.556Z,8.97
2023-04-08T13:48:48.963Z,9.32
2023-04-08T13:51:15.372Z,9.11
2023-04-08T13:53:41.682Z,8.81
2023-04-08T13:56:08.101Z,9.12
2023-04-08T13:58:34.409Z,9.17
2023-04-08T14:01:00.802Z,8.95
2023-04-08T14:03:27.162Z,9.55
2023-04-08T14:05:53.557Z,9.47
2023-04-08T14:08:19.857Z,8.73
2023-04-08T14:10:46.154Z,8.41
2023-04-08T14:13:12.428Z,8.79
2023-04-08T14:15:38.737Z,9.19
2023-04-08T14:18:05.083Z,8.59
2023-04-08T14:20:31.437Z,8.64
2023-04-08T14:22:57.752Z,8.63
2023-04-08T14:25:24.405Z,8.78
2023-04-08T14:27:58.133Z,8.72
2023-04-08T14:30:25.348Z,8.09
2023-04-08T14:32:51.736Z,8.66
2023-04-08T14:35:18.450Z,8.40
2023-04-08T14:37:44.755Z,8.85
2023-04-08T14:40:11.529Z,8.89
2023-04-08T14:42:37.925Z,8.94
2023-04-08T14:45:04.457Z,8.45
2023-04-08T14:47:30.793Z,8.43
2023-04-08T14:49:57.157Z,8.47
2023-04-08T14:52:23.457Z,8.00
2023-04-08T14:54:49.740Z,8.09
2023-04-08T14:57:16.073Z,8.64
2023-04-08T14:59:42.374Z,8.40
2023-04-08T15:02:08.827Z,8.22
2023-04-08T15:04:35.344Z,8.73
2023-04-08T15:07:01.743Z,8.87
2023-04-08T15:09:28.068Z,9.00
2023-04-08T15:11:54.381Z,8.60
2023-04-08T15:14:20.674Z,8.02
2023-04-08T15:16:47.072Z,8.71
2023-04-08T15:19:13.391Z,8.29
2023-04-08T15:21:39.708Z,8.68
2023-04-08T15:24:06.095Z,8.60
2023-04-08T15:26:32.407Z,9.17
2023-04-08T15:28:58.700Z,9.18
2023-04-08T15:31:25.095Z,9.23
2023-04-08T15:33:51.676Z,9.08
2023-04-08T15:36:18.191Z,8.50
2023-04-08T15:38:44.693Z,8.70
2023-04-08T15:41:18.470Z,8.57
2023-04-08T15:43:45.926Z,8.39
2023-04-08T15:46:17.609Z,8.36
2023-04-08T15:48:44.100Z,8.89
2023-04-08T15:51:10.684Z,9.10
2023-04-08T15:53:36.983Z,8.46
2023-04-08T15:56:03.300Z,8.56
2023-04-08T15:58:29.898Z,8.85
2023-04-08T16:00:56.198Z,8.43
2023-04-08T16:03:22.697Z,8.11
2023-04-08T16:05:49.152Z,8.08
2023-04-08T16:08:15.565Z,8.30
2023-04-08T16:10:42.340Z,8.21
2023-04-08T16:13:08.642Z,8.10
2023-04-08T16:15:35.356Z,8.30
2023-04-08T16:18:03.100Z,8.35
2023-04-08T16:20:29.422Z,8.24
2023-04-08T16:22:56.134Z,8.00
2023-04-08T16:25:22.625Z,7.98
2023-04-08T16:27:48.939Z,8.04
2023-04-08T16:30:15.463Z,8.10
2023-04-08T16:32:41.774Z,8.18
2023-04-08T16:35:08.573Z,8.46
2023-04-08T16:37:34.869Z,8.42
2023-04-08T16:40:01.254Z,8.32
2023-04-08T16:42:27.614Z,8.37
2023-04-08T16:44:57.277Z,8.37
2023-04-08T16:47:23.802Z,8.10
2023-04-08T16:49:51.295Z,8.25
2023-04-08T16:52:17.601Z,8.01
2023-04-08T16:54:44.306Z,8.25
2023-04-08T16:57:10.617Z,8.20
2023-04-08T16:59:36.978Z,7.91
2023-04-08T17:02:03.515Z,8.05
2023-04-08T17:04:29.981Z,7.93
2023-04-08T17:06:56.412Z,8.10
2023-04-08T17:09:23.016Z,8.07
2023-04-08T17:11:49.413Z,8.28
2023-04-08T17:14:15.738Z,8.29
2023-04-08T17:16:42.073Z,8.22
2023-04-08T17:19:08.452Z,7.91
2023-04-08T17:21:34.744Z,8.09
2023-04-08T17:24:01.075Z,8.16
2023-04-08T17:26:27.417Z,8.07
2023-04-08T17:28:53.729Z,8.17
2023-04-08T17:31:20.067Z,8.12
2023-04-08T17:33:46.390Z,7.84
2023-04-08T17:36:12.851Z,7.79
2023-04-08T17:38:39.174Z,7.98
2023-04-08T17:41:05.829Z,8.03
2023-04-08T17:43:32.137Z,8.00
2023-04-08T17:46:01.850Z,7.86
2023-04-08T17:48:28.402Z,7.88
2023-04-08T17:51:02.096Z,7.76
2023-04-08T17:53:28.509Z,7.59
2023-04-08T17:55:54.829Z,7.71
2023-04-08T17:58:22.276Z,7.74
2023-04-08T18:00:48.710Z,7.73
2023-04-08T18:03:15.204Z,7.73
2023-04-08T18:05:42.024Z,7.66
2023-04-08T18:08:08.714Z,7.79
2023-04-08T18:10:37.041Z,7.95
2023-04-08T18:15:35.306Z,7.90
2023-04-08T18:18:01.748Z,7.86
2023-04-08T18:20:28.084Z,7.87
2023-04-08T18:22:54.460Z,7.81
2023-04-08T18:25:20.777Z,7.78
2023-04-08T18:27:47.090Z,7.76
2023-04-08T18:30:13.519Z,7.74
2023-04-08T18:32:39.854Z,7.69
2023-04-08T18:35:06.603Z,7.87
2023-04-08T18:37:32.920Z,7.54
2023-04-08T18:39:59.230Z,7.47
2023-04-08T18:42:25.525Z,7.48
2023-04-08T18:44:51.829Z,7.68
2023-04-08T18:47:18.131Z,7.75
2023-04-08T18:49:44.428Z,7.58
2023-04-08T18:52:10.761Z,7.73
2023-04-08T18:54:37.071Z,7.62
2023-04-08T18:57:03.407Z,7.66
2023-04-08T18:59:29.744Z,7.61
2023-04-08T19:01:56.317Z,7.51
2023-04-08T19:04:22.948Z,7.48
2023-04-08T19:06:49.315Z,7.46
2023-04-08T19:09:15.615Z,7.31
2023-04-08T19:11:41.931Z,7.42
2023-04-08T19:14:08.254Z,7.47
2023-04-08T19:16:34.809Z,7.59
2023-04-08T19:19:01.166Z,7.62
2023-04-08T19:21:27.542Z,7.53
2023-04-08T19:23:54.084Z,7.50
2023-04-08T19:26:20.430Z,7.63
2023-04-08T19:28:46.759Z,7.51
2023-04-08T19:31:17.515Z,7.70
2023-04-08T19:33:44.340Z,7.62
2023-04-08T19:36:11.365Z,7.62
2023-04-08T19:38:38.087Z,7.53
2023-04-08T19:41:04.648Z,7.44
2023-04-08T19:43:30.959Z,7.40
2023-04-08T19:45:57.812Z,7.41
2023-04-08T19:48:24.739Z,7.32
2023-04-08T19:50:52.107Z,7.56
2023-04-08T19:53:18.635Z,7.49
2023-04-08T19:55:44.939Z,7.28
2023-04-08T19:58:11.416Z,7.23
2023-04-08T20:00:37.728Z,7.23
2023-04-08T20:03:05.256Z,7.21
2023-04-08T20:05:31.884Z,7.13
2023-04-08T20:07:58.204Z,7.13
2023-04-08T20:10:24.510Z,7.14
2023-04-08T20:12:52.932Z,7.20
2023-04-08T20:15:24.710Z,7.09
2023-04-08T20:17:51.835Z,6.99
2023-04-08T20:20:18.296Z,6.78
2023-04-08T20:22:44.630Z,6.78
2023-04-08T20:25:10.940Z,6.67
2023-04-08T20:27:37.249Z,6.45
2023-04-08T20:30:03.809Z,6.24
2023-04-08T20:32:30.114Z,6.13
2023-04-08T20:34:56.428Z,6.13
2023-04-08T20:37:22.743Z,6.03
2023-04-08T20:39:49.055Z,5.99
2023-04-08T20:42:15.355Z,5.87
2023-04-08T20:44:41.686Z,5.80
2023-04-08T20:47:08.059Z,5.71
2023-04-08T20:49:34.493Z,5.59
2023-04-08T20:52:00.796Z,5.78
2023-04-08T20:54:27.123Z,5.82
2023-04-08T20:56:53.420Z,5.72
2023-04-08T20:59:19.741Z,5.65
2023-04-08T21:01:46.173Z,5.49
2023-04-08T21:04:12.533Z,5.38
2023-04-08T21:06:38.844Z,5.31
2023-04-08T21:09:05.167Z,5.24
2023-04-08T21:11:31.480Z,5.10
2023-04-08T21:13:57.799Z,5.23
2023-04-08T21:16:24.137Z,5.34
2023-04-08T21:18:50.690Z,5.35
2023-04-08T21:21:17.212Z,5.01
2023-04-08T21:23:43.513Z,4.88
2023-04-08T21:26:11.120Z,4.88
2023-04-08T21:28:37.474Z,4.82
2023-04-08T21:31:13.520Z,4.79
2023-04-08T21:33:40.077Z,4.82
2023-04-08T21:36:06.655Z,4.66
2023-04-08T21:38:33.676Z,4.73
2023-04-08T21:41:00.238Z,4.68
2023-04-08T21:43:26.646Z,4.60
2023-04-08T21:45:53.832Z,4.55
2023-04-08T21:48:20.420Z,4.69
2023-04-08T21:50:47.173Z,4.43
2023-04-08T21:53:13.496Z,4.31
2023-04-08T21:55:39.806Z,4.45
2023-04-08T21:58:06.111Z,4.43
2023-04-08T22:00:32.414Z,4.38
2023-04-08T22:02:58.984Z,4.49
2023-04-08T22:05:25.480Z,4.46
2023-04-08T22:07:51.789Z,4.47
2023-04-08T22:10:18.166Z,4.48
2023-04-08T22:12:44.468Z,4.56
2023-04-08T22:15:11.099Z,4.44
2023-04-08T22:17:37.410Z,4.47
2023-04-08T22:20:03.993Z,4.35
2023-04-08T22:22:30.320Z,4.42
2023-04-08T22:24:56.630Z,4.42
2023-04-08T22:27:22.917Z,4.28
2023-04-08T22:29:49.251Z,4.12
2023-04-08T22:32:15.604Z,3.97
2023-04-08T22:34:41.931Z,3.92
2023-04-08T22:37:08.266Z,3.93
2023-04-08T22:39:34.584Z,3.98
2023-04-08T22:42:00.946Z,4.00
2023-04-08T22:44:27.254Z,3.97
2023-04-08T22:46:53.541Z,3.75
2023-04-08T22:49:19.847Z,4.02
2023-04-08T22:51:46.162Z,3.99
2023-04-08T22:54:12.466Z,3.95
2023-04-08T22:56:38.797Z,3.87
2023-04-08T22:59:05.166Z,3.83
2023-04-08T23:01:31.627Z,3.80
2023-04-08T23:03:58.024Z,3.61
2023-04-08T23:06:24.519Z,3.59
2023-04-08T23:08:51.060Z,3.57
2023-04-08T23:11:17.639Z,3.72
2023-04-08T23:13:43.939Z,3.68
2023-04-08T23:16:10.546Z,3.71
2023-04-08T23:18:36.943Z,3.64
2023-04-08T23:21:03.292Z,3.63
2023-04-08T23:23:29.601Z,3.65
2023-04-08T23:25:56.048Z,3.60
2023-04-08T23:28:22.784Z,3.73
2023-04-08T23:30:49.120Z,3.74
2023-04-08T23:33:15.483Z,3.79
2023-04-08T23:35:41.959Z,3.77
2023-04-08T23:38:08.294Z,3.77
2023-04-08T23:40:34.609Z,3.70
2023-04-08T23:43:00.903Z,3.69
2023-04-08T23:45:27.191Z,3.66
2023-04-08T23:47:53.562Z,3.75
2023-04-08T23:50:19.862Z,3.78
2023-04-08T23:52:46.163Z,3.72
2023-04-08T23:55:12.457Z,3.79
2023-04-08T23:57:41.842Z,3.56
